sensor_id;sensor_type;location;lat;lon;timestamp;P1;durP1;ratioP1;P2;durP2;ratioP2
9108;SDS011;4590;51.462;6.692;2022-09-24T00:01:52;10.25;;;6.97;;
9108;SDS011;4590;51.462;6.692;2022-09-24T00:04:18;10.43;;;7.93;;
9108;SDS011;4590;51.462;6.692;2022-09-24T00:06:44;10.47;;;8.03;;
9108;SDS011;4590;51.462;6.692;2022-09-24T00:09:12;11.60;;;7.80;;
9108;SDS011;4590;51.462;6.692;2022-09-24T00:11:39;12.23;;;7.80;;
9108;SDS011;4590;51.462;6.692;2022-09-24T00:16:31;8.40;;;6.40;;
9108;SDS011;4590;51.462;6.692;2022-09-24T00:18:59;9.95;;;7.43;;
9108;SDS011;4590;51.462;6.692;2022-09-24T00:21:26;10.43;;;7.93;;
9108;SDS011;4590;51.462;6.692;2022-09-24T00:23:55;11.82;;;7.90;;
9108;SDS011;4590;51.462;6.692;2022-09-24T00:26:22;11.68;;;8.00;;
9108;SDS011;4590;51.462;6.692;2022-09-24T00:29:07;11.60;;;8.55;;
9108;SDS011;4590;51.462;6.692;2022-09-24T00:31:34;10.02;;;7.63;;
9108;SDS011;4590;51.462;6.692;2022-09-24T00:33:59;11.10;;;7.78;;
9108;SDS011;4590;51.462;6.692;2022-09-24T00:36:25;12.65;;;9.20;;
9108;SDS011;4590;51.462;6.692;2022-09-24T00:38:52;14.48;;;8.85;;
9108;SDS011;4590;51.462;6.692;2022-09-24T00:41:22;12.90;;;8.40;;
9108;SDS011;4590;51.462;6.692;2022-09-24T00:43:49;10.90;;;8.13;;
9108;SDS011;4590;51.462;6.692;2022-09-24T00:46:20;14.18;;;9.10;;
9108;SDS011;4590;51.462;6.692;2022-09-24T00:48:50;11.18;;;8.35;;
9108;SDS011;4590;51.462;6.692;2022-09-24T00:51:25;11.32;;;8.43;;
9108;SDS011;4590;51.462;6.692;2022-09-24T00:53:55;13.35;;;8.23;;
9108;SDS011;4590;51.462;6.692;2022-09-24T00:56:24;10.93;;;8.30;;
9108;SDS011;4590;51.462;6.692;2022-09-24T00:58:51;12.10;;;8.80;;
9108;SDS011;4590;51.462;6.692;2022-09-24T01:01:19;12.20;;;8.38;;
9108;SDS011;4590;51.462;6.692;2022-09-24T01:03:47;12.82;;;9.05;;
9108;SDS011;4590;51.462;6.692;2022-09-24T01:06:14;10.02;;;7.97;;
9108;SDS011;4590;51.462;6.692;2022-09-24T01:08:40;12.02;;;8.18;;
9108;SDS011;4590;51.462;6.692;2022-09-24T01:25:40;13.55;;;9.57;;
9108;SDS011;4590;51.462;6.692;2022-09-24T01:28:28;13.60;;;9.63;;
9108;SDS011;4590;51.462;6.692;2022-09-24T01:31:24;12.23;;;8.77;;
9108;SDS011;4590;51.462;6.692;2022-09-24T01:33:53;13.77;;;9.68;;
9108;SDS011;4590;51.462;6.692;2022-09-24T01:36:21;14.95;;;10.50;;
9108;SDS011;4590;51.462;6.692;2022-09-24T01:38:48;13.38;;;10.18;;
9108;SDS011;4590;51.462;6.692;2022-09-24T01:41:17;16.83;;;10.55;;
9108;SDS011;4590;51.462;6.692;2022-09-24T01:43:43;15.38;;;11.25;;
9108;SDS011;4590;51.462;6.692;2022-09-24T01:46:09;15.40;;;11.30;;
9108;SDS011;4590;51.462;6.692;2022-09-24T01:48:37;16.55;;;10.45;;
9108;SDS011;4590;51.462;6.692;2022-09-24T01:51:17;18.08;;;11.27;;
9108;SDS011;4590;51.462;6.692;2022-09-24T01:53:46;13.95;;;10.50;;
9108;SDS011;4590;51.462;6.692;2022-09-24T01:56:37;16.10;;;11.52;;
9108;SDS011;4590;51.462;6.692;2022-09-24T02:04:25;14.25;;;10.88;;
9108;SDS011;4590;51.462;6.692;2022-09-24T02:07:03;15.27;;;10.68;;
9108;SDS011;4590;51.462;6.692;2022-09-24T02:09:39;17.02;;;11.18;;
9108;SDS011;4590;51.462;6.692;2022-09-24T02:15:12;15.93;;;10.35;;
9108;SDS011;4590;51.462;6.692;2022-09-24T02:17:42;14.27;;;9.93;;
9108;SDS011;4590;51.462;6.692;2022-09-24T02:20:14;14.88;;;11.02;;
9108;SDS011;4590;51.462;6.692;2022-09-24T02:22:44;12.95;;;10.35;;
9108;SDS011;4590;51.462;6.692;2022-09-24T02:25:12;14.75;;;10.80;;
9108;SDS011;4590;51.462;6.692;2022-09-24T02:27:42;14.18;;;9.90;;
9108;SDS011;4590;51.462;6.692;2022-09-24T02:30:08;14.73;;;10.15;;
9108;SDS011;4590;51.462;6.692;2022-09-24T02:32:34;14.93;;;10.50;;
9108;SDS011;4590;51.462;6.692;2022-09-24T02:35:04;14.73;;;10.07;;
9108;SDS011;4590;51.462;6.692;2022-09-24T02:37:36;13.65;;;9.57;;
9108;SDS011;4590;51.462;6.692;2022-09-24T02:40:06;12.07;;;8.85;;
9108;SDS011;4590;51.462;6.692;2022-09-24T02:42:33;13.85;;;9.55;;
9108;SDS011;4590;51.462;6.692;2022-09-24T02:44:59;13.43;;;9.70;;
9108;SDS011;4590;51.462;6.692;2022-09-24T02:47:25;15.63;;;9.45;;
9108;SDS011;4590;51.462;6.692;2022-09-24T02:49:51;13.27;;;8.90;;
9108;SDS011;4590;51.462;6.692;2022-09-24T02:52:16;16.63;;;9.03;;
9108;SDS011;4590;51.462;6.692;2022-09-24T02:54:42;14.27;;;9.40;;
9108;SDS011;4590;51.462;6.692;2022-09-24T02:57:08;13.10;;;8.13;;
9108;SDS011;4590;51.462;6.692;2022-09-24T02:59:34;13.07;;;8.90;;
9108;SDS011;4590;51.462;6.692;2022-09-24T03:01:59;14.60;;;9.07;;
9108;SDS011;4590;51.462;6.692;2022-09-24T03:04:25;12.70;;;9.18;;
9108;SDS011;4590;51.462;6.692;2022-09-24T03:06:50;12.50;;;8.17;;
9108;SDS011;4590;51.462;6.692;2022-09-24T03:09:16;11.40;;;7.87;;
9108;SDS011;4590;51.462;6.692;2022-09-24T03:11:41;12.27;;;8.60;;
9108;SDS011;4590;51.462;6.692;2022-09-24T03:14:06;12.13;;;8.43;;
9108;SDS011;4590;51.462;6.692;2022-09-24T03:16:32;11.20;;;8.03;;
9108;SDS011;4590;51.462;6.692;2022-09-24T03:18:57;11.13;;;7.57;;
9108;SDS011;4590;51.462;6.692;2022-09-24T03:21:23;11.33;;;7.83;;
9108;SDS011;4590;51.462;6.692;2022-09-24T03:23:48;13.30;;;8.60;;
9108;SDS011;4590;51.462;6.692;2022-09-24T03:26:14;13.30;;;8.25;;
9108;SDS011;4590;51.462;6.692;2022-09-24T03:28:39;17.13;;;8.68;;
9108;SDS011;4590;51.462;6.692;2022-09-24T03:31:05;12.70;;;8.55;;
9108;SDS011;4590;51.462;6.692;2022-09-24T03:36:11;13.45;;;7.90;;
9108;SDS011;4590;51.462;6.692;2022-09-24T03:38:42;12.15;;;8.52;;
9108;SDS011;4590;51.462;6.692;2022-09-24T03:41:10;11.60;;;8.13;;
9108;SDS011;4590;51.462;6.692;2022-09-24T03:43:36;13.25;;;8.50;;
9108;SDS011;4590;51.462;6.692;2022-09-24T03:46:02;11.98;;;7.88;;
9108;SDS011;4590;51.462;6.692;2022-09-24T03:48:30;12.73;;;8.15;;
9108;SDS011;4590;51.462;6.692;2022-09-24T03:51:01;14.63;;;8.98;;
9108;SDS011;4590;51.462;6.692;2022-09-24T03:53:31;11.82;;;8.07;;
9108;SDS011;4590;51.462;6.692;2022-09-24T03:55:56;13.07;;;9.20;;
9108;SDS011;4590;51.462;6.692;2022-09-24T03:58:23;14.27;;;9.35;;
9108;SDS011;4590;51.462;6.692;2022-09-24T04:00:52;14.07;;;8.90;;
9108;SDS011;4590;51.462;6.692;2022-09-24T04:03:18;13.07;;;8.20;;
9108;SDS011;4590;51.462;6.692;2022-09-24T04:05:44;11.77;;;8.45;;
9108;SDS011;4590;51.462;6.692;2022-09-24T04:08:10;12.10;;;8.63;;
9108;SDS011;4590;51.462;6.692;2022-09-24T04:10:35;12.23;;;8.17;;
9108;SDS011;4590;51.462;6.692;2022-09-24T04:13:01;13.90;;;8.50;;
9108;SDS011;4590;51.462;6.692;2022-09-24T04:15:26;12.73;;;8.60;;
9108;SDS011;4590;51.462;6.692;2022-09-24T04:18:00;13.07;;;8.80;;
9108;SDS011;4590;51.462;6.692;2022-09-24T04:20:26;13.00;;;8.82;;
9108;SDS011;4590;51.462;6.692;2022-09-24T04:22:54;14.30;;;8.70;;
9108;SDS011;4590;51.462;6.692;2022-09-24T04:25:21;13.27;;;8.68;;
9108;SDS011;4590;51.462;6.692;2022-09-24T04:27:54;12.73;;;8.60;;
9108;SDS011;4590;51.462;6.692;2022-09-24T04:30:21;12.20;;;8.10;;
9108;SDS011;4590;51.462;6.692;2022-09-24T04:32:47;14.23;;;9.07;;
9108;SDS011;4590;51.462;6.692;2022-09-24T04:35:15;11.32;;;8.00;;
9108;SDS011;4590;51.462;6.692;2022-09-24T04:37:41;12.18;;;7.88;;
9108;SDS011;4590;51.462;6.692;2022-09-24T04:40:07;13.48;;;8.88;;
9108;SDS011;4590;51.462;6.692;2022-09-24T04:42:34;12.43;;;8.45;;
9108;SDS011;4590;51.462;6.692;2022-09-24T04:44:59;12.80;;;9.10;;
9108;SDS011;4590;51.462;6.692;2022-09-24T04:47:26;12.65;;;8.57;;
9108;SDS011;4590;51.462;6.692;2022-09-24T04:49:51;12.50;;;8.73;;
9108;SDS011;4590;51.462;6.692;2022-09-24T04:52:16;14.73;;;8.80;;
9108;SDS011;4590;51.462;6.692;2022-09-24T04:54:42;13.40;;;8.87;;
9108;SDS011;4590;51.462;6.692;2022-09-24T04:57:10;13.43;;;8.80;;
9108;SDS011;4590;51.462;6.692;2022-09-24T04:59:37;11.43;;;8.27;;
9108;SDS011;4590;51.462;6.692;2022-09-24T05:02:02;12.70;;;8.50;;
9108;SDS011;4590;51.462;6.692;2022-09-24T05:04:27;15.03;;;9.60;;
9108;SDS011;4590;51.462;6.692;2022-09-24T05:06:54;13.48;;;9.00;;
9108;SDS011;4590;51.462;6.692;2022-09-24T05:09:19;13.23;;;8.83;;
9108;SDS011;4590;51.462;6.692;2022-09-24T05:11:44;13.40;;;8.70;;
9108;SDS011;4590;51.462;6.692;2022-09-24T05:14:10;14.90;;;8.63;;
9108;SDS011;4590;51.462;6.692;2022-09-24T05:16:35;13.40;;;9.07;;
9108;SDS011;4590;51.462;6.692;2022-09-24T05:19:00;12.17;;;8.50;;
9108;SDS011;4590;51.462;6.692;2022-09-24T05:21:28;13.35;;;9.07;;
9108;SDS011;4590;51.462;6.692;2022-09-24T05:23:53;11.07;;;8.13;;
9108;SDS011;4590;51.462;6.692;2022-09-24T05:26:18;13.13;;;7.87;;
9108;SDS011;4590;51.462;6.692;2022-09-24T05:29:02;14.82;;;9.48;;
9108;SDS011;4590;51.462;6.692;2022-09-24T05:31:28;11.47;;;7.93;;
9108;SDS011;4590;51.462;6.692;2022-09-24T05:33:53;11.57;;;8.17;;
9108;SDS011;4590;51.462;6.692;2022-09-24T05:36:18;12.70;;;7.60;;
9108;SDS011;4590;51.462;6.692;2022-09-24T05:38:44;10.83;;;7.37;;
9108;SDS011;4590;51.462;6.692;2022-09-24T05:41:09;10.60;;;6.70;;
9108;SDS011;4590;51.462;6.692;2022-09-24T05:43:34;10.73;;;7.35;;
9108;SDS011;4590;51.462;6.692;2022-09-24T05:46:00;10.45;;;7.30;;
9108;SDS011;4590;51.462;6.692;2022-09-24T05:48:26;9.57;;;6.90;;
9108;SDS011;4590;51.462;6.692;2022-09-24T05:50:52;9.52;;;6.80;;
9108;SDS011;4590;51.462;6.692;2022-09-24T05:53:19;9.95;;;6.25;;
9108;SDS011;4590;51.462;6.692;2022-09-24T05:55:46;11.05;;;6.88;;
9108;SDS011;4590;51.462;6.692;2022-09-24T05:58:11;10.80;;;7.17;;
9108;SDS011;4590;51.462;6.692;2022-09-24T06:00:37;10.82;;;7.78;;
9108;SDS011;4590;51.462;6.692;2022-09-24T06:03:08;10.10;;;6.60;;
9108;SDS011;4590;51.462;6.692;2022-09-24T06:05:36;11.55;;;7.25;;
9108;SDS011;4590;51.462;6.692;2022-09-24T06:08:02;12.40;;;7.13;;
9108;SDS011;4590;51.462;6.692;2022-09-24T06:10:28;10.77;;;7.45;;
9108;SDS011;4590;51.462;6.692;2022-09-24T06:12:53;12.15;;;7.35;;
9108;SDS011;4590;51.462;6.692;2022-09-24T06:15:19;12.33;;;7.63;;
9108;SDS011;4590;51.462;6.692;2022-09-24T06:17:45;10.15;;;7.03;;
9108;SDS011;4590;51.462;6.692;2022-09-24T06:20:11;12.55;;;7.75;;
9108;SDS011;4590;51.462;6.692;2022-09-24T06:22:37;12.32;;;7.78;;
9108;SDS011;4590;51.462;6.692;2022-09-24T06:25:03;11.27;;;8.10;;
9108;SDS011;4590;51.462;6.692;2022-09-24T06:27:29;13.52;;;8.90;;
9108;SDS011;4590;51.462;6.692;2022-09-24T06:29:54;12.53;;;8.47;;
9108;SDS011;4590;51.462;6.692;2022-09-24T06:32:19;11.83;;;8.33;;
9108;SDS011;4590;51.462;6.692;2022-09-24T06:34:47;12.80;;;8.90;;
9108;SDS011;4590;51.462;6.692;2022-09-24T06:37:12;15.30;;;9.10;;
9108;SDS011;4590;51.462;6.692;2022-09-24T06:39:38;14.77;;;9.43;;
9108;SDS011;4590;51.462;6.692;2022-09-24T06:42:03;14.60;;;9.60;;
9108;SDS011;4590;51.462;6.692;2022-09-24T06:44:29;14.32;;;9.00;;
9108;SDS011;4590;51.462;6.692;2022-09-24T06:46:55;12.32;;;8.88;;
9108;SDS011;4590;51.462;6.692;2022-09-24T06:49:20;15.38;;;10.13;;
9108;SDS011;4590;51.462;6.692;2022-09-24T06:51:46;14.60;;;9.93;;
9108;SDS011;4590;51.462;6.692;2022-09-24T06:54:14;17.33;;;10.17;;
9108;SDS011;4590;51.462;6.692;2022-09-24T06:56:39;16.17;;;10.40;;
9108;SDS011;4590;51.462;6.692;2022-09-24T06:59:05;14.73;;;9.87;;
9108;SDS011;4590;51.462;6.692;2022-09-24T07:01:32;15.80;;;9.90;;
9108;SDS011;4590;51.462;6.692;2022-09-24T07:03:58;15.57;;;10.73;;
9108;SDS011;4590;51.462;6.692;2022-09-24T07:06:23;15.53;;;10.40;;
9108;SDS011;4590;51.462;6.692;2022-09-24T07:08:49;14.03;;;9.37;;
9108;SDS011;4590;51.462;6.692;2022-09-24T07:11:15;15.02;;;9.07;;
9108;SDS011;4590;51.462;6.692;2022-09-24T07:13:40;16.00;;;10.27;;
9108;SDS011;4590;51.462;6.692;2022-09-24T07:16:06;15.70;;;10.13;;
9108;SDS011;4590;51.462;6.692;2022-09-24T07:18:31;15.63;;;9.97;;
9108;SDS011;4590;51.462;6.692;2022-09-24T07:20:56;16.73;;;11.03;;
9108;SDS011;4590;51.462;6.692;2022-09-24T07:23:22;16.35;;;10.35;;
9108;SDS011;4590;51.462;6.692;2022-09-24T07:25:47;13.55;;;9.63;;
9108;SDS011;4590;51.462;6.692;2022-09-24T07:28:13;15.25;;;10.35;;
9108;SDS011;4590;51.462;6.692;2022-09-24T07:30:42;15.73;;;9.80;;
9108;SDS011;4590;51.462;6.692;2022-09-24T07:33:08;14.83;;;10.37;;
9108;SDS011;4590;51.462;6.692;2022-09-24T07:35:35;15.80;;;10.25;;
9108;SDS011;4590;51.462;6.692;2022-09-24T07:38:02;16.67;;;10.30;;
9108;SDS011;4590;51.462;6.692;2022-09-24T07:40:33;16.50;;;10.50;;
9108;SDS011;4590;51.462;6.692;2022-09-24T07:42:58;15.82;;;10.38;;
9108;SDS011;4590;51.462;6.692;2022-09-24T07:45:25;16.58;;;10.68;;
9108;SDS011;4590;51.462;6.692;2022-09-24T07:48:00;21.02;;;11.23;;
9108;SDS011;4590;51.462;6.692;2022-09-24T07:50:28;18.48;;;10.63;;
9108;SDS011;4590;51.462;6.692;2022-09-24T07:52:54;15.23;;;10.20;;
9108;SDS011;4590;51.462;6.692;2022-09-24T07:55:20;20.90;;;10.17;;
9108;SDS011;4590;51.462;6.692;2022-09-24T07:57:47;13.82;;;9.63;;
9108;SDS011;4590;51.462;6.692;2022-09-24T08:00:13;15.30;;;10.07;;
9108;SDS011;4590;51.462;6.692;2022-09-24T08:02:39;16.60;;;10.73;;
9108;SDS011;4590;51.462;6.692;2022-09-24T08:05:04;16.70;;;11.50;;
9108;SDS011;4590;51.462;6.692;2022-09-24T08:07:30;15.13;;;10.68;;
9108;SDS011;4590;51.462;6.692;2022-09-24T08:09:56;14.07;;;10.03;;
9108;SDS011;4590;51.462;6.692;2022-09-24T08:12:23;14.95;;;10.25;;
9108;SDS011;4590;51.462;6.692;2022-09-24T08:14:49;15.90;;;10.00;;
9108;SDS011;4590;51.462;6.692;2022-09-24T08:17:15;16.60;;;10.98;;
9108;SDS011;4590;51.462;6.692;2022-09-24T08:19:41;13.75;;;9.35;;
9108;SDS011;4590;51.462;6.692;2022-09-24T08:22:07;15.82;;;9.93;;
9108;SDS011;4590;51.462;6.692;2022-09-24T08:24:32;21.48;;;9.88;;
9108;SDS011;4590;51.462;6.692;2022-09-24T08:26:58;16.50;;;10.93;;
9108;SDS011;4590;51.462;6.692;2022-09-24T08:29:23;15.20;;;10.73;;
9108;SDS011;4590;51.462;6.692;2022-09-24T08:31:49;17.10;;;9.43;;
9108;SDS011;4590;51.462;6.692;2022-09-24T08:34:14;14.57;;;8.97;;
9108;SDS011;4590;51.462;6.692;2022-09-24T08:36:39;13.30;;;9.18;;
9108;SDS011;4590;51.462;6.692;2022-09-24T08:39:05;12.93;;;8.47;;
9108;SDS011;4590;51.462;6.692;2022-09-24T08:47:20;10.82;;;7.70;;
9108;SDS011;4590;51.462;6.692;2022-09-24T08:50:05;11.07;;;7.45;;
9108;SDS011;4590;51.462;6.692;2022-09-24T08:52:45;10.27;;;6.68;;
9108;SDS011;4590;51.462;6.692;2022-09-24T08:55:33;9.23;;;6.20;;
9108;SDS011;4590;51.462;6.692;2022-09-24T09:00:48;10.40;;;6.05;;
9108;SDS011;4590;51.462;6.692;2022-09-24T09:03:42;6.97;;;5.28;;
9108;SDS011;4590;51.462;6.692;2022-09-24T09:06:46;7.25;;;5.03;;
9108;SDS011;4590;51.462;6.692;2022-09-24T09:11:49;8.15;;;5.65;;
9108;SDS011;4590;51.462;6.692;2022-09-24T09:14:39;9.45;;;6.53;;
9108;SDS011;4590;51.462;6.692;2022-09-24T09:17:14;8.48;;;5.82;;
9108;SDS011;4590;51.462;6.692;2022-09-24T09:19:57;8.50;;;5.88;;
9108;SDS011;4590;51.462;6.692;2022-09-24T09:22:27;8.57;;;5.28;;
9108;SDS011;4590;51.462;6.692;2022-09-24T09:24:57;8.23;;;5.65;;
9108;SDS011;4590;51.462;6.692;2022-09-24T09:27:27;8.05;;;5.30;;
9108;SDS011;4590;51.462;6.692;2022-09-24T09:29:55;9.90;;;6.20;;
9108;SDS011;4590;51.462;6.692;2022-09-24T09:32:31;8.98;;;5.60;;
9108;SDS011;4590;51.462;6.692;2022-09-24T09:35:02;8.40;;;6.20;;
9108;SDS011;4590;51.462;6.692;2022-09-24T09:40:03;8.57;;;5.90;;
9108;SDS011;4590;51.462;6.692;2022-09-24T09:42:42;8.60;;;5.65;;
9108;SDS011;4590;51.462;6.692;2022-09-24T09:45:28;9.38;;;6.78;;
9108;SDS011;4590;51.462;6.692;2022-09-24T09:47:54;11.60;;;6.78;;
9108;SDS011;4590;51.462;6.692;2022-09-24T09:52:49;11.00;;;6.85;;
9108;SDS011;4590;51.462;6.692;2022-09-24T09:55:19;10.55;;;6.68;;
9108;SDS011;4590;51.462;6.692;2022-09-24T09:57:50;13.95;;;7.00;;
9108;SDS011;4590;51.462;6.692;2022-09-24T10:00:26;8.25;;;6.55;;
9108;SDS011;4590;51.462;6.692;2022-09-24T10:02:56;6.97;;;4.35;;
9108;SDS011;4590;51.462;6.692;2022-09-24T10:05:22;7.70;;;5.13;;
9108;SDS011;4590;51.462;6.692;2022-09-24T10:07:52;6.80;;;4.35;;
9108;SDS011;4590;51.462;6.692;2022-09-24T10:10:19;6.47;;;4.60;;
9108;SDS011;4590;51.462;6.692;2022-09-24T10:12:48;5.97;;;4.10;;
9108;SDS011;4590;51.462;6.692;2022-09-24T10:15:17;7.18;;;4.00;;
9108;SDS011;4590;51.462;6.692;2022-09-24T10:17:45;5.78;;;3.92;;
9108;SDS011;4590;51.462;6.692;2022-09-24T10:20:26;6.35;;;3.75;;
9108;SDS011;4590;51.462;6.692;2022-09-24T10:22:56;5.57;;;3.45;;
9108;SDS011;4590;51.462;6.692;2022-09-24T10:25:25;5.13;;;3.70;;
9108;SDS011;4590;51.462;6.692;2022-09-24T10:27:53;7.15;;;4.47;;
9108;SDS011;4590;51.462;6.692;2022-09-24T10:30:52;6.25;;;4.40;;
9108;SDS011;4590;51.462;6.692;2022-09-24T10:33:20;6.40;;;4.10;;
9108;SDS011;4590;51.462;6.692;2022-09-24T10:35:46;5.22;;;3.50;;
9108;SDS011;4590;51.462;6.692;2022-09-24T10:38:16;5.10;;;3.92;;
9108;SDS011;4590;51.462;6.692;2022-09-24T10:40:43;5.32;;;3.20;;
9108;SDS011;4590;51.462;6.692;2022-09-24T10:43:13;5.32;;;3.67;;
9108;SDS011;4590;51.462;6.692;2022-09-24T10:45:46;4.70;;;3.17;;
9108;SDS011;4590;51.462;6.692;2022-09-24T10:48:34;4.93;;;3.10;;
9108;SDS011;4590;51.462;6.692;2022-09-24T10:51:15;4.75;;;3.60;;
9108;SDS011;4590;51.462;6.692;2022-09-24T10:56:42;4.68;;;3.67;;
9108;SDS011;4590;51.462;6.692;2022-09-24T11:12:49;6.82;;;3.63;;
9108;SDS011;4590;51.462;6.692;2022-09-24T11:15:50;5.30;;;3.63;;
9108;SDS011;4590;51.462;6.692;2022-09-24T11:24:29;5.35;;;4.07;;
9108;SDS011;4590;51.462;6.692;2022-09-24T11:36:03;6.28;;;3.70;;
9108;SDS011;4590;51.462;6.692;2022-09-24T11:44:50;5.65;;;4.28;;
9108;SDS011;4590;51.462;6.692;2022-09-24T11:47:40;7.45;;;4.40;;
9108;SDS011;4590;51.462;6.692;2022-09-24T11:53:40;5.03;;;3.95;;
9108;SDS011;4590;51.462;6.692;2022-09-24T11:56:17;6.45;;;4.22;;
9108;SDS011;4590;51.462;6.692;2022-09-24T12:01:23;5.72;;;4.03;;
9108;SDS011;4590;51.462;6.692;2022-09-24T12:06:43;6.80;;;3.75;;
9108;SDS011;4590;51.462;6.692;2022-09-24T12:12:16;6.07;;;3.70;;
9108;SDS011;4590;51.462;6.692;2022-09-24T12:14:55;5.05;;;3.50;;
9108;SDS011;4590;51.462;6.692;2022-09-24T12:22:46;4.57;;;3.35;;
9108;SDS011;4590;51.462;6.692;2022-09-24T12:25:14;6.25;;;3.88;;
9108;SDS011;4590;51.462;6.692;2022-09-24T12:27:40;5.57;;;3.50;;
9108;SDS011;4590;51.462;6.692;2022-09-24T12:39:02;5.38;;;3.88;;
9108;SDS011;4590;51.462;6.692;2022-09-24T12:41:37;5.18;;;3.45;;
9108;SDS011;4590;51.462;6.692;2022-09-24T12:49:13;5.25;;;3.22;;
9108;SDS011;4590;51.462;6.692;2022-09-24T12:51:47;6.32;;;3.35;;
9108;SDS011;4590;51.462;6.692;2022-09-24T12:57:03;5.85;;;3.75;;
9108;SDS011;4590;51.462;6.692;2022-09-24T13:02:17;4.20;;;2.90;;
9108;SDS011;4590;51.462;6.692;2022-09-24T13:07:27;4.35;;;3.47;;
9108;SDS011;4590;51.462;6.692;2022-09-24T13:09:52;4.75;;;3.50;;
9108;SDS011;4590;51.462;6.692;2022-09-24T13:12:21;5.40;;;3.47;;
9108;SDS011;4590;51.462;6.692;2022-09-24T13:14:54;4.95;;;3.65;;
9108;SDS011;4590;51.462;6.692;2022-09-24T13:17:28;5.05;;;3.88;;
9108;SDS011;4590;51.462;6.692;2022-09-24T13:19:57;5.90;;;3.88;;
9108;SDS011;4590;51.462;6.692;2022-09-24T13:22:29;6.45;;;3.80;;
9108;SDS011;4590;51.462;6.692;2022-09-24T13:28:00;4.68;;;3.28;;
9108;SDS011;4590;51.462;6.692;2022-09-24T13:30:47;4.82;;;3.35;;
9108;SDS011;4590;51.462;6.692;2022-09-24T13:33:22;5.63;;;3.75;;
9108;SDS011;4590;51.462;6.692;2022-09-24T13:38:36;6.38;;;4.40;;
9108;SDS011;4590;51.462;6.692;2022-09-24T13:41:18;6.30;;;4.07;;
9108;SDS011;4590;51.462;6.692;2022-09-24T13:44:00;5.75;;;4.22;;
9108;SDS011;4590;51.462;6.692;2022-09-24T13:46:29;6.82;;;4.25;;
9108;SDS011;4590;51.462;6.692;2022-09-24T13:48:58;6.88;;;4.30;;
9108;SDS011;4590;51.462;6.692;2022-09-24T13:51:28;7.32;;;4.82;;
9108;SDS011;4590;51.462;6.692;2022-09-24T13:56:55;6.80;;;4.60;;
9108;SDS011;4590;51.462;6.692;2022-09-24T13:59:41;7.10;;;5.32;;
9108;SDS011;4590;51.462;6.692;2022-09-24T14:02:25;9.87;;;5.53;;
9108;SDS011;4590;51.462;6.692;2022-09-24T14:04:52;7.50;;;5.40;;
9108;SDS011;4590;51.462;6.692;2022-09-24T14:07:20;8.73;;;5.32;;
9108;SDS011;4590;51.462;6.692;2022-09-24T14:09:46;8.05;;;5.53;;
9108;SDS011;4590;51.462;6.692;2022-09-24T14:14:43;6.10;;;4.57;;
9108;SDS011;4590;51.462;6.692;2022-09-24T14:17:14;8.75;;;5.57;;
9108;SDS011;4590;51.462;6.692;2022-09-24T14:22:05;7.38;;;4.88;;
9108;SDS011;4590;51.462;6.692;2022-09-24T14:24:42;8.02;;;4.90;;
9108;SDS011;4590;51.462;6.692;2022-09-24T14:27:12;6.85;;;4.90;;
9108;SDS011;4590;51.462;6.692;2022-09-24T14:29:44;8.15;;;5.22;;
9108;SDS011;4590;51.462;6.692;2022-09-24T14:32:24;6.78;;;4.60;;
9108;SDS011;4590;51.462;6.692;2022-09-24T14:34:54;6.82;;;4.80;;
9108;SDS011;4590;51.462;6.692;2022-09-24T14:37:25;6.75;;;5.18;;
9108;SDS011;4590;51.462;6.692;2022-09-24T14:39:56;8.15;;;5.75;;
9108;SDS011;4590;51.462;6.692;2022-09-24T14:42:28;7.35;;;5.15;;
9108;SDS011;4590;51.462;6.692;2022-09-24T14:44:58;7.45;;;5.40;;
9108;SDS011;4590;51.462;6.692;2022-09-24T14:47:29;7.95;;;5.50;;
9108;SDS011;4590;51.462;6.692;2022-09-24T14:49:57;7.80;;;5.10;;
9108;SDS011;4590;51.462;6.692;2022-09-24T14:52:27;7.80;;;5.22;;
9108;SDS011;4590;51.462;6.692;2022-09-24T14:55:19;8.18;;;5.65;;
9108;SDS011;4590;51.462;6.692;2022-09-24T14:57:47;6.93;;;5.07;;
9108;SDS011;4590;51.462;6.692;2022-09-24T15:00:23;7.70;;;5.78;;
9108;SDS011;4590;51.462;6.692;2022-09-24T15:02:57;8.35;;;5.63;;
9108;SDS011;4590;51.462;6.692;2022-09-24T15:05:26;7.03;;;5.53;;
9108;SDS011;4590;51.462;6.692;2022-09-24T15:07:53;8.73;;;5.72;;
9108;SDS011;4590;51.462;6.692;2022-09-24T15:10:35;7.95;;;5.88;;
9108;SDS011;4590;51.462;6.692;2022-09-24T15:13:10;7.68;;;5.80;;
9108;SDS011;4590;51.462;6.692;2022-09-24T15:15:37;7.57;;;5.60;;
9108;SDS011;4590;51.462;6.692;2022-09-24T15:18:04;8.98;;;5.97;;
9108;SDS011;4590;51.462;6.692;2022-09-24T15:20:34;7.53;;;5.70;;
9108;SDS011;4590;51.462;6.692;2022-09-24T15:22:59;9.80;;;6.37;;
9108;SDS011;4590;51.462;6.692;2022-09-24T15:25:25;8.35;;;5.97;;
9108;SDS011;4590;51.462;6.692;2022-09-24T15:27:51;10.15;;;7.32;;
9108;SDS011;4590;51.462;6.692;2022-09-24T15:30:19;19.52;;;6.60;;
9108;SDS011;4590;51.462;6.692;2022-09-24T15:32:45;10.65;;;7.00;;
9108;SDS011;4590;51.462;6.692;2022-09-24T15:37:39;11.13;;;6.80;;
9108;SDS011;4590;51.462;6.692;2022-09-24T15:42:40;10.23;;;7.07;;
9108;SDS011;4590;51.462;6.692;2022-09-24T15:45:14;11.23;;;7.00;;
9108;SDS011;4590;51.462;6.692;2022-09-24T15:47:42;10.75;;;6.72;;
9108;SDS011;4590;51.462;6.692;2022-09-24T15:50:08;12.30;;;8.15;;
9108;SDS011;4590;51.462;6.692;2022-09-24T15:52:35;11.25;;;7.28;;
9108;SDS011;4590;51.462;6.692;2022-09-24T15:55:11;9.38;;;6.85;;
9108;SDS011;4590;51.462;6.692;2022-09-24T15:57:39;10.23;;;6.57;;
9108;SDS011;4590;51.462;6.692;2022-09-24T16:00:05;10.10;;;7.35;;
9108;SDS011;4590;51.462;6.692;2022-09-24T16:02:31;10.05;;;7.20;;
9108;SDS011;4590;51.462;6.692;2022-09-24T16:04:57;9.05;;;6.78;;
9108;SDS011;4590;51.462;6.692;2022-09-24T16:07:24;9.43;;;7.00;;
9108;SDS011;4590;51.462;6.692;2022-09-24T16:09:50;10.35;;;6.47;;
9108;SDS011;4590;51.462;6.692;2022-09-24T16:12:16;9.25;;;7.03;;
9108;SDS011;4590;51.462;6.692;2022-09-24T16:14:43;10.23;;;7.50;;
9108;SDS011;4590;51.462;6.692;2022-09-24T16:17:08;10.23;;;7.67;;
9108;SDS011;4590;51.462;6.692;2022-09-24T16:19:34;11.93;;;7.85;;
9108;SDS011;4590;51.462;6.692;2022-09-24T16:21:59;10.80;;;7.87;;
9108;SDS011;4590;51.462;6.692;2022-09-24T16:24:25;10.97;;;7.47;;
9108;SDS011;4590;51.462;6.692;2022-09-24T16:26:51;11.48;;;8.25;;
9108;SDS011;4590;51.462;6.692;2022-09-24T16:29:16;9.90;;;7.63;;
9108;SDS011;4590;51.462;6.692;2022-09-24T16:31:42;12.07;;;8.68;;
9108;SDS011;4590;51.462;6.692;2022-09-24T16:34:10;10.60;;;7.43;;
9108;SDS011;4590;51.462;6.692;2022-09-24T16:36:36;10.15;;;7.97;;
9108;SDS011;4590;51.462;6.692;2022-09-24T16:39:02;9.75;;;7.15;;
9108;SDS011;4590;51.462;6.692;2022-09-24T16:41:27;10.82;;;8.35;;
9108;SDS011;4590;51.462;6.692;2022-09-24T16:43:58;10.27;;;8.20;;
9108;SDS011;4590;51.462;6.692;2022-09-24T16:46:24;12.00;;;8.05;;
9108;SDS011;4590;51.462;6.692;2022-09-24T16:48:49;12.13;;;8.23;;
9108;SDS011;4590;51.462;6.692;2022-09-24T16:51:15;13.45;;;8.30;;
9108;SDS011;4590;51.462;6.692;2022-09-24T16:53:41;12.75;;;7.95;;
9108;SDS011;4590;51.462;6.692;2022-09-24T16:56:08;11.65;;;7.65;;
9108;SDS011;4590;51.462;6.692;2022-09-24T16:58:37;10.40;;;7.68;;
9108;SDS011;4590;51.462;6.692;2022-09-24T17:01:07;11.20;;;8.35;;
9108;SDS011;4590;51.462;6.692;2022-09-24T17:03:37;10.20;;;7.35;;
9108;SDS011;4590;51.462;6.692;2022-09-24T17:06:05;11.13;;;7.85;;
9108;SDS011;4590;51.462;6.692;2022-09-24T17:08:32;11.70;;;8.10;;
9108;SDS011;4590;51.462;6.692;2022-09-24T17:11:20;9.70;;;7.35;;
9108;SDS011;4590;51.462;6.692;2022-09-24T17:13:46;12.35;;;8.10;;
9108;SDS011;4590;51.462;6.692;2022-09-24T17:16:13;9.60;;;7.25;;
9108;SDS011;4590;51.462;6.692;2022-09-24T17:18:39;10.38;;;8.18;;
9108;SDS011;4590;51.462;6.692;2022-09-24T17:21:06;10.65;;;7.82;;
9108;SDS011;4590;51.462;6.692;2022-09-24T17:23:33;10.50;;;7.95;;
9108;SDS011;4590;51.462;6.692;2022-09-24T17:28:25;10.02;;;6.93;;
9108;SDS011;4590;51.462;6.692;2022-09-24T17:30:50;10.47;;;6.73;;
9108;SDS011;4590;51.462;6.692;2022-09-24T17:33:15;10.80;;;7.57;;
9108;SDS011;4590;51.462;6.692;2022-09-24T17:35:41;9.93;;;7.47;;
9108;SDS011;4590;51.462;6.692;2022-09-24T17:38:06;10.00;;;7.57;;
9108;SDS011;4590;51.462;6.692;2022-09-24T17:40:31;10.10;;;7.13;;